Aviation Digital Data Service (ADDS)

Output produced by METARs form (1555 UTC 29 July 2015)
found at http://aviationweather.gov/adds/metars/
 
KJXN 291129Z 2912/3012 20007KT P6SM VCSH SCT035 BKN080 
     FM291800 24010KT P6SM VCTS BKN035CB 
     FM292200 26012G20KT P6SM SCT050 BKN250 
     FM300100 24006KT P6SM SKC